sensor_id;sensor_type;location;lat;lon;timestamp;pressure;altitude;pressure_sealevel;temperature;humidity
73085;BME280;62974;49.460;10.892;2023-12-20T00:01:23;97563.31;;;4.17;100.00
73085;BME280;62974;49.460;10.892;2023-12-20T00:03:51;97568.63;;;4.17;100.00
73085;BME280;62974;49.460;10.892;2023-12-20T00:06:22;97557.16;;;4.08;100.00
73085;BME280;62974;49.460;10.892;2023-12-20T00:08:49;97545.84;;;4.14;100.00
73085;BME280;62974;49.460;10.892;2023-12-20T00:11:17;97557.50;;;4.05;100.00
73085;BME280;62974;49.460;10.892;2023-12-20T00:13:45;97548.50;;;4.14;100.00
73085;BME280;62974;49.460;10.892;2023-12-20T00:16:17;97542.72;;;4.03;100.00
73085;BME280;62974;49.460;10.892;2023-12-20T00:18:45;97543.03;;;4.16;100.00
73085;BME280;62974;49.460;10.892;2023-12-20T00:21:13;97534.59;;;4.12;100.00
73085;BME280;62974;49.460;10.892;2023-12-20T00:23:42;97523.97;;;4.12;100.00
73085;BME280;62974;49.460;10.892;2023-12-20T00:26:09;97523.81;;;4.06;100.00
73085;BME280;62974;49.460;10.892;2023-12-20T00:28:37;97521.44;;;4.11;100.00
73085;BME280;62974;49.460;10.892;2023-12-20T00:31:04;97510.19;;;4.01;100.00
73085;BME280;62974;49.460;10.892;2023-12-20T00:33:34;97513.81;;;4.00;100.00
73085;BME280;62974;49.460;10.892;2023-12-20T00:36:02;97505.84;;;4.00;100.00
73085;BME280;62974;49.460;10.892;2023-12-20T00:38:30;97510.00;;;4.02;100.00
73085;BME280;62974;49.460;10.892;2023-12-20T00:40:59;97498.88;;;4.07;100.00
73085;BME280;62974;49.460;10.892;2023-12-20T00:43:27;97507.03;;;4.05;100.00
73085;BME280;62974;49.460;10.892;2023-12-20T00:45:54;97496.56;;;4.12;100.00
73085;BME280;62974;49.460;10.892;2023-12-20T00:48:23;97485.94;;;4.04;100.00
73085;BME280;62974;49.460;10.892;2023-12-20T00:50:53;97487.25;;;4.08;100.00
73085;BME280;62974;49.460;10.892;2023-12-20T00:53:21;97492.06;;;4.04;100.00
73085;BME280;62974;49.460;10.892;2023-12-20T00:55:49;97493.25;;;4.10;100.00
73085;BME280;62974;49.460;10.892;2023-12-20T00:58:18;97495.38;;;4.14;100.00
73085;BME280;62974;49.460;10.892;2023-12-20T01:00:45;97490.25;;;4.13;100.00
73085;BME280;62974;49.460;10.892;2023-12-20T01:03:13;97491.56;;;4.17;100.00
73085;BME280;62974;49.460;10.892;2023-12-20T01:05:42;97488.09;;;4.16;100.00
73085;BME280;62974;49.460;10.892;2023-12-20T01:08:09;97490.41;;;4.11;100.00
73085;BME280;62974;49.460;10.892;2023-12-20T01:10:37;97477.31;;;4.10;100.00
73085;BME280;62974;49.460;10.892;2023-12-20T01:13:05;97486.75;;;4.04;100.00
73085;BME280;62974;49.460;10.892;2023-12-20T01:15:34;97480.28;;;4.07;100.00
73085;BME280;62974;49.460;10.892;2023-12-20T01:18:02;97476.13;;;4.04;100.00
73085;BME280;62974;49.460;10.892;2023-12-20T01:20:29;97466.50;;;4.11;100.00
73085;BME280;62974;49.460;10.892;2023-12-20T01:22:57;97466.84;;;4.00;100.00
73085;BME280;62974;49.460;10.892;2023-12-20T01:25:25;97463.34;;;4.00;100.00
73085;BME280;62974;49.460;10.892;2023-12-20T01:27:53;97459.88;;;3.99;100.00
73085;BME280;62974;49.460;10.892;2023-12-20T01:30:21;97464.34;;;3.99;100.00
73085;BME280;62974;49.460;10.892;2023-12-20T01:32:50;97461.19;;;4.03;100.00
73085;BME280;62974;49.460;10.892;2023-12-20T01:35:20;97455.38;;;4.00;100.00
73085;BME280;62974;49.460;10.892;2023-12-20T01:37:48;97464.34;;;3.99;100.00
73085;BME280;62974;49.460;10.892;2023-12-20T01:40:16;97462.38;;;4.01;100.00
73085;BME280;62974;49.460;10.892;2023-12-20T01:42:43;97462.88;;;3.96;100.00
73085;BME280;62974;49.460;10.892;2023-12-20T01:45:11;97468.03;;;3.98;100.00
73085;BME280;62974;49.460;10.892;2023-12-20T01:47:39;97468.03;;;3.98;100.00
73085;BME280;62974;49.460;10.892;2023-12-20T01:50:09;97466.84;;;4.00;100.00
73085;BME280;62974;49.460;10.892;2023-12-20T01:52:37;97468.53;;;3.93;100.00
73085;BME280;62974;49.460;10.892;2023-12-20T01:55:06;97463.50;;;3.98;100.00
73085;BME280;62974;49.460;10.892;2023-12-20T01:57:39;97467.69;;;3.93;100.00
73085;BME280;62974;49.460;10.892;2023-12-20T02:00:08;97467.50;;;3.94;100.00
73085;BME280;62974;49.460;10.892;2023-12-20T02:02:39;97474.13;;;3.90;100.00
73085;BME280;62974;49.460;10.892;2023-12-20T02:05:08;97473.84;;;3.85;100.00
73085;BME280;62974;49.460;10.892;2023-12-20T02:07:36;97471.50;;;3.82;100.00
73085;BME280;62974;49.460;10.892;2023-12-20T02:10:05;97469.34;;;3.77;100.00
73085;BME280;62974;49.460;10.892;2023-12-20T02:12:32;97473.84;;;3.77;100.00
73085;BME280;62974;49.460;10.892;2023-12-20T02:15:00;97468.88;;;3.74;100.00
73085;BME280;62974;49.460;10.892;2023-12-20T02:17:29;97468.03;;;3.73;100.00
73085;BME280;62974;49.460;10.892;2023-12-20T02:19:57;97468.69;;;3.67;100.00
73085;BME280;62974;49.460;10.892;2023-12-20T02:22:26;97473.50;;;3.72;100.00
73085;BME280;62974;49.460;10.892;2023-12-20T02:24:54;97473.34;;;3.65;100.00
73085;BME280;62974;49.460;10.892;2023-12-20T02:27:22;97472.84;;;3.62;100.00
73085;BME280;62974;49.460;10.892;2023-12-20T02:29:50;97472.84;;;3.62;100.00
73085;BME280;62974;49.460;10.892;2023-12-20T02:32:19;97471.81;;;3.55;100.00
73085;BME280;62974;49.460;10.892;2023-12-20T02:34:47;97471.00;;;3.54;100.00
73085;BME280;62974;49.460;10.892;2023-12-20T02:37:15;97466.84;;;3.52;100.00
73085;BME280;62974;49.460;10.892;2023-12-20T02:39:44;97467.03;;;3.50;100.00
73085;BME280;62974;49.460;10.892;2023-12-20T02:42:12;97479.47;;;3.50;100.00
73085;BME280;62974;49.460;10.892;2023-12-20T02:44:40;97473.97;;;3.51;100.00
73085;BME280;62974;49.460;10.892;2023-12-20T02:47:08;97466.50;;;3.47;100.00
73085;BME280;62974;49.460;10.892;2023-12-20T02:49:35;97473.13;;;3.51;100.00
73085;BME280;62974;49.460;10.892;2023-12-20T02:52:04;97465.19;;;3.51;100.00
73085;BME280;62974;49.460;10.892;2023-12-20T02:54:32;97468.84;;;3.50;100.00
73085;BME280;62974;49.460;10.892;2023-12-20T02:57:01;97470.47;;;3.51;100.00
73085;BME280;62974;49.460;10.892;2023-12-20T02:59:28;97472.50;;;3.57;100.00
73085;BME280;62974;49.460;10.892;2023-12-20T03:01:56;97473.78;;;3.37;100.00
73085;BME280;62974;49.460;10.892;2023-12-20T03:04:26;97473.13;;;3.35;100.00
73085;BME280;62974;49.460;10.892;2023-12-20T03:06:54;97464.16;;;3.36;100.00
73085;BME280;62974;49.460;10.892;2023-12-20T03:09:22;97464.00;;;3.37;100.00
73085;BME280;62974;49.460;10.892;2023-12-20T03:11:49;97459.03;;;3.26;100.00
73085;BME280;62974;49.460;10.892;2023-12-20T03:14:19;97467.13;;;3.24;100.00
73085;BME280;62974;49.460;10.892;2023-12-20T03:16:47;97466.47;;;3.39;100.00
73085;BME280;62974;49.460;10.892;2023-12-20T03:19:15;97475.47;;;3.38;100.00
73085;BME280;62974;49.460;10.892;2023-12-20T03:21:43;97476.44;;;3.28;100.00
73085;BME280;62974;49.460;10.892;2023-12-20T03:24:10;97476.25;;;3.22;100.00
73085;BME280;62974;49.460;10.892;2023-12-20T03:26:38;97466.47;;;3.30;100.00
73085;BME280;62974;49.460;10.892;2023-12-20T03:29:06;97466.31;;;3.24;100.00
73085;BME280;62974;49.460;10.892;2023-12-20T03:31:35;97470.28;;;3.28;100.00
73085;BME280;62974;49.460;10.892;2023-12-20T03:34:03;97468.47;;;3.28;100.00
73085;BME280;62974;49.460;10.892;2023-12-20T03:36:30;97474.63;;;3.29;100.00
73085;BME280;62974;49.460;10.892;2023-12-20T03:38:58;97457.69;;;3.22;100.00
73085;BME280;62974;49.460;10.892;2023-12-20T03:41:26;97473.75;;;3.20;100.00
73085;BME280;62974;49.460;10.892;2023-12-20T03:43:53;97465.97;;;3.19;100.00
73085;BME280;62974;49.460;10.892;2023-12-20T03:46:21;97468.44;;;3.12;100.00
73085;BME280;62974;49.460;10.892;2023-12-20T03:48:50;97467.59;;;3.12;100.00
73085;BME280;62974;49.460;10.892;2023-12-20T03:51:18;97462.47;;;3.10;100.00
73085;BME280;62974;49.460;10.892;2023-12-20T03:53:45;97467.94;;;3.09;100.00
73085;BME280;62974;49.460;10.892;2023-12-20T03:56:13;97468.91;;;3.08;100.00
73085;BME280;62974;49.460;10.892;2023-12-20T03:58:41;97468.94;;;3.16;100.00
73085;BME280;62974;49.460;10.892;2023-12-20T04:01:09;97478.69;;;3.07;100.00
73085;BME280;62974;49.460;10.892;2023-12-20T04:03:37;97470.44;;;3.10;100.00
73085;BME280;62974;49.460;10.892;2023-12-20T04:06:08;97469.13;;;3.14;100.00
73085;BME280;62974;49.460;10.892;2023-12-20T04:08:38;97473.25;;;3.17;100.00
73085;BME280;62974;49.460;10.892;2023-12-20T04:11:06;97472.44;;;3.16;100.00
73085;BME280;62974;49.460;10.892;2023-12-20T04:13:34;97473.25;;;3.17;100.00
73085;BME280;62974;49.460;10.892;2023-12-20T04:16:01;97471.09;;;3.12;100.00
73085;BME280;62974;49.460;10.892;2023-12-20T04:18:29;97471.78;;;3.14;100.00
73085;BME280;62974;49.460;10.892;2023-12-20T04:20:58;97477.09;;;3.14;100.00
73085;BME280;62974;49.460;10.892;2023-12-20T04:23:27;97482.38;;;3.06;100.00
73085;BME280;62974;49.460;10.892;2023-12-20T04:26:02;97478.88;;;3.06;100.00
73085;BME280;62974;49.460;10.892;2023-12-20T04:28:30;97475.38;;;3.05;100.00
73085;BME280;62974;49.460;10.892;2023-12-20T04:30:58;97485.34;;;3.11;100.00
73085;BME280;62974;49.460;10.892;2023-12-20T04:33:26;97476.41;;;3.12;100.00
73085;BME280;62974;49.460;10.892;2023-12-20T04:35:53;97479.88;;;3.13;100.00
73085;BME280;62974;49.460;10.892;2023-12-20T04:38:21;97480.34;;;3.00;100.00
73085;BME280;62974;49.460;10.892;2023-12-20T04:40:50;97481.16;;;3.01;100.00
73085;BME280;62974;49.460;10.892;2023-12-20T04:43:18;97473.72;;;3.04;100.00
73085;BME280;62974;49.460;10.892;2023-12-20T04:45:45;97486.84;;;3.14;100.00
73085;BME280;62974;49.460;10.892;2023-12-20T04:48:13;97481.19;;;3.09;100.00
73085;BME280;62974;49.460;10.892;2023-12-20T04:50:41;97482.53;;;3.13;100.00
73085;BME280;62974;49.460;10.892;2023-12-20T04:53:08;97491.97;;;3.07;100.00
73085;BME280;62974;49.460;10.892;2023-12-20T04:55:36;97490.81;;;3.02;100.00
73085;BME280;62974;49.460;10.892;2023-12-20T04:58:06;97488.47;;;3.07;100.00
73085;BME280;62974;49.460;10.892;2023-12-20T05:00:35;97484.03;;;3.15;100.00
73085;BME280;62974;49.460;10.892;2023-12-20T05:03:03;97485.84;;;3.15;100.00
73085;BME280;62974;49.460;10.892;2023-12-20T05:05:31;97496.63;;;3.13;100.00
73085;BME280;62974;49.460;10.892;2023-12-20T05:07:59;97504.25;;;3.16;100.00
73085;BME280;62974;49.460;10.892;2023-12-20T05:10:26;97509.66;;;2.99;100.00
73085;BME280;62974;49.460;10.892;2023-12-20T05:12:54;97508.84;;;2.98;100.00
73085;BME280;62974;49.460;10.892;2023-12-20T05:15:23;97512.84;;;3.02;100.00
73085;BME280;62974;49.460;10.892;2023-12-20T05:17:51;97498.06;;;3.00;100.00
73085;BME280;62974;49.460;10.892;2023-12-20T05:20:18;97497.63;;;3.12;100.00
73085;BME280;62974;49.460;10.892;2023-12-20T05:22:46;97506.75;;;3.18;100.00
73085;BME280;62974;49.460;10.892;2023-12-20T05:25:13;97510.22;;;3.10;100.00
73085;BME280;62974;49.460;10.892;2023-12-20T05:27:42;97513.88;;;3.09;100.00
73085;BME280;62974;49.460;10.892;2023-12-20T05:30:11;97516.34;;;3.11;100.00
73085;BME280;62974;49.460;10.892;2023-12-20T05:32:40;97526.94;;;3.11;100.00
73085;BME280;62974;49.460;10.892;2023-12-20T05:35:08;97529.56;;;3.03;100.00
73085;BME280;62974;49.460;10.892;2023-12-20T05:37:35;97519.31;;;3.08;100.00
73085;BME280;62974;49.460;10.892;2023-12-20T05:40:05;97518.72;;;3.22;100.00
73085;BME280;62974;49.460;10.892;2023-12-20T05:42:33;97525.94;;;3.04;100.00
73085;BME280;62974;49.460;10.892;2023-12-20T05:45:01;97523.31;;;3.12;100.00
73085;BME280;62974;49.460;10.892;2023-12-20T05:47:28;97520.69;;;3.20;100.00
73085;BME280;62974;49.460;10.892;2023-12-20T05:49:57;97517.03;;;3.13;100.00
73085;BME280;62974;49.460;10.892;2023-12-20T05:52:25;97533.88;;;3.04;100.00
73085;BME280;62974;49.460;10.892;2023-12-20T05:54:53;97534.72;;;3.04;100.00
73085;BME280;62974;49.460;10.892;2023-12-20T05:57:22;97525.31;;;3.10;100.00
73085;BME280;62974;49.460;10.892;2023-12-20T05:59:49;97537.59;;;3.19;100.00
73085;BME280;62974;49.460;10.892;2023-12-20T06:02:17;97547.50;;;3.09;100.00
73085;BME280;62974;49.460;10.892;2023-12-20T06:04:45;97543.38;;;3.06;100.00
73085;BME280;62974;49.460;10.892;2023-12-20T06:07:17;97545.00;;;3.07;100.00
73085;BME280;62974;49.460;10.892;2023-12-20T06:09:45;97534.44;;;3.23;100.00
73085;BME280;62974;49.460;10.892;2023-12-20T06:12:12;97550.41;;;3.31;100.00
73085;BME280;62974;49.460;10.892;2023-12-20T06:14:40;97564.13;;;3.27;100.00
73085;BME280;62974;49.460;10.892;2023-12-20T06:17:08;97562.63;;;3.16;100.00
73085;BME280;62974;49.460;10.892;2023-12-20T06:19:35;97571.28;;;3.26;100.00
73085;BME280;62974;49.460;10.892;2023-12-20T06:22:03;97572.28;;;3.25;100.00
73085;BME280;62974;49.460;10.892;2023-12-20T06:24:32;97583.41;;;3.29;100.00
73085;BME280;62974;49.460;10.892;2023-12-20T06:27:00;97578.91;;;3.21;100.00
73085;BME280;62974;49.460;10.892;2023-12-20T06:29:28;97581.25;;;3.33;100.00
73085;BME280;62974;49.460;10.892;2023-12-20T06:31:57;97576.03;;;3.15;100.00
73085;BME280;62974;49.460;10.892;2023-12-20T06:34:25;97575.75;;;3.18;100.00
73085;BME280;62974;49.460;10.892;2023-12-20T06:36:52;97581.59;;;3.29;100.00
73085;BME280;62974;49.460;10.892;2023-12-20T06:39:20;97573.22;;;3.16;100.00
73085;BME280;62974;49.460;10.892;2023-12-20T06:41:49;97574.41;;;3.14;100.00
73085;BME280;62974;49.460;10.892;2023-12-20T06:44:17;97568.78;;;3.25;100.00
73085;BME280;62974;49.460;10.892;2023-12-20T06:46:44;97568.94;;;3.23;100.00
73085;BME280;62974;49.460;10.892;2023-12-20T06:49:15;97570.59;;;3.24;100.00
73085;BME280;62974;49.460;10.892;2023-12-20T06:51:43;97576.75;;;3.25;100.00
73085;BME280;62974;49.460;10.892;2023-12-20T06:54:10;97578.56;;;3.24;100.00
73085;BME280;62974;49.460;10.892;2023-12-20T06:56:38;97572.09;;;3.27;100.00
73085;BME280;62974;49.460;10.892;2023-12-20T06:59:07;97572.59;;;3.30;100.00
73085;BME280;62974;49.460;10.892;2023-12-20T07:01:35;97579.25;;;3.35;100.00
73085;BME280;62974;49.460;10.892;2023-12-20T07:04:03;97586.56;;;3.33;100.00
73085;BME280;62974;49.460;10.892;2023-12-20T07:06:31;97598.00;;;3.33;100.00
73085;BME280;62974;49.460;10.892;2023-12-20T07:08:58;97602.34;;;3.34;100.00
73085;BME280;62974;49.460;10.892;2023-12-20T07:11:26;97614.59;;;3.35;100.00
73085;BME280;62974;49.460;10.892;2023-12-20T07:13:54;97620.59;;;3.37;100.00
73085;BME280;62974;49.460;10.892;2023-12-20T07:16:23;97627.03;;;3.35;100.00
73085;BME280;62974;49.460;10.892;2023-12-20T07:18:51;97622.22;;;3.30;100.00
73085;BME280;62974;49.460;10.892;2023-12-20T07:21:19;97627.34;;;3.31;100.00
73085;BME280;62974;49.460;10.892;2023-12-20T07:23:47;97628.19;;;3.32;100.00
73085;BME280;62974;49.460;10.892;2023-12-20T07:26:15;97626.50;;;3.31;100.00
73085;BME280;62974;49.460;10.892;2023-12-20T07:28:43;97630.69;;;3.34;100.00
73085;BME280;62974;49.460;10.892;2023-12-20T07:31:10;97633.16;;;3.35;100.00
73085;BME280;62974;49.460;10.892;2023-12-20T07:33:40;97628.53;;;3.37;100.00
73085;BME280;62974;49.460;10.892;2023-12-20T07:36:08;97644.28;;;3.39;100.00
73085;BME280;62974;49.460;10.892;2023-12-20T07:38:35;97629.19;;;3.39;100.00
73085;BME280;62974;49.460;10.892;2023-12-20T07:41:03;97625.41;;;3.42;100.00
73085;BME280;62974;49.460;10.892;2023-12-20T07:43:31;97629.41;;;3.46;100.00
73085;BME280;62974;49.460;10.892;2023-12-20T07:46:04;97624.09;;;3.46;100.00
73085;BME280;62974;49.460;10.892;2023-12-20T07:48:34;97629.41;;;3.46;100.00
73085;BME280;62974;49.460;10.892;2023-12-20T07:51:04;97633.41;;;3.50;100.00
73085;BME280;62974;49.460;10.892;2023-12-20T07:53:33;97629.09;;;3.49;100.00
73085;BME280;62974;49.460;10.892;2023-12-20T07:56:03;97631.59;;;3.50;100.00
73085;BME280;62974;49.460;10.892;2023-12-20T07:58:40;97642.22;;;3.50;100.00
73085;BME280;62974;49.460;10.892;2023-12-20T08:01:18;97657.28;;;3.50;100.00
73085;BME280;62974;49.460;10.892;2023-12-20T08:03:48;97652.66;;;3.52;100.00
73085;BME280;62974;49.460;10.892;2023-12-20T08:06:17;97645.53;;;3.52;100.00
73085;BME280;62974;49.460;10.892;2023-12-20T08:08:45;97645.19;;;3.55;100.00
73085;BME280;62974;49.460;10.892;2023-12-20T08:11:24;97649.38;;;3.58;100.00
73085;BME280;62974;49.460;10.892;2023-12-20T08:13:52;97647.69;;;3.57;100.00
73085;BME280;62974;49.460;10.892;2023-12-20T08:16:19;97657.34;;;3.58;100.00
73085;BME280;62974;49.460;10.892;2023-12-20T08:18:47;97661.81;;;3.57;100.00
73085;BME280;62974;49.460;10.892;2023-12-20T08:21:16;97676.56;;;3.60;100.00
73085;BME280;62974;49.460;10.892;2023-12-20T08:23:46;97680.91;;;3.61;100.00
73085;BME280;62974;49.460;10.892;2023-12-20T08:26:18;97676.56;;;3.60;100.00
73085;BME280;62974;49.460;10.892;2023-12-20T08:28:46;97692.16;;;3.63;100.00
73085;BME280;62974;49.460;10.892;2023-12-20T08:31:14;97695.97;;;3.60;100.00
73085;BME280;62974;49.460;10.892;2023-12-20T08:33:44;97705.13;;;3.58;100.00
73085;BME280;62974;49.460;10.892;2023-12-20T08:36:12;97694.78;;;3.55;100.00
73085;BME280;62974;49.460;10.892;2023-12-20T08:38:41;97703.44;;;3.57;100.00
73085;BME280;62974;49.460;10.892;2023-12-20T08:41:08;97701.44;;;3.59;100.00
73085;BME280;62974;49.460;10.892;2023-12-20T08:43:36;97709.78;;;3.64;100.00
73085;BME280;62974;49.460;10.892;2023-12-20T08:46:07;97703.44;;;3.57;100.00
73085;BME280;62974;49.460;10.892;2023-12-20T08:48:37;97702.75;;;3.55;100.00
73085;BME280;62974;49.460;10.892;2023-12-20T08:51:05;97708.28;;;3.61;100.00
73085;BME280;62974;49.460;10.892;2023-12-20T08:53:35;97700.94;;;3.55;100.00
73085;BME280;62974;49.460;10.892;2023-12-20T08:56:04;97696.75;;;3.45;100.00
73085;BME280;62974;49.460;10.892;2023-12-20T08:58:32;97705.00;;;3.34;100.00
73085;BME280;62974;49.460;10.892;2023-12-20T09:01:02;97702.16;;;3.35;100.00
73085;BME280;62974;49.460;10.892;2023-12-20T09:03:30;97709.28;;;3.35;100.00
73085;BME280;62974;49.460;10.892;2023-12-20T09:05:58;97714.81;;;3.41;100.00
73085;BME280;62974;49.460;10.892;2023-12-20T09:08:25;97719.56;;;3.29;100.00
73085;BME280;62974;49.460;10.892;2023-12-20T09:10:53;97728.66;;;3.27;100.00
73085;BME280;62974;49.460;10.892;2023-12-20T09:13:23;97726.81;;;3.27;100.00
73085;BME280;62974;49.460;10.892;2023-12-20T09:15:55;97719.03;;;3.26;100.00
73085;BME280;62974;49.460;10.892;2023-12-20T09:18:23;97720.44;;;3.38;100.00
73085;BME280;62974;49.460;10.892;2023-12-20T09:20:51;97713.41;;;3.29;100.00
73085;BME280;62974;49.460;10.892;2023-12-20T09:23:19;97714.81;;;3.41;100.00
73085;BME280;62974;49.460;10.892;2023-12-20T09:25:47;97725.78;;;3.46;100.00
73085;BME280;62974;49.460;10.892;2023-12-20T09:28:14;97738.19;;;3.38;100.00
73085;BME280;62974;49.460;10.892;2023-12-20T09:30:44;97736.56;;;3.45;100.00
73085;BME280;62974;49.460;10.892;2023-12-20T09:33:12;97753.16;;;3.47;100.00
73085;BME280;62974;49.460;10.892;2023-12-20T09:35:40;97761.28;;;3.45;100.00
73085;BME280;62974;49.460;10.892;2023-12-20T09:38:08;97761.16;;;3.55;100.00
73085;BME280;62974;49.460;10.892;2023-12-20T09:40:36;97775.25;;;3.55;100.00
73085;BME280;62974;49.460;10.892;2023-12-20T09:43:11;97777.31;;;3.61;100.00
73085;BME280;62974;49.460;10.892;2023-12-20T09:45:39;97773.13;;;3.59;100.00
73085;BME280;62974;49.460;10.892;2023-12-20T09:48:09;97780.25;;;3.58;100.00
73085;BME280;62974;49.460;10.892;2023-12-20T09:50:40;97778.94;;;3.62;100.00
73085;BME280;62974;49.460;10.892;2023-12-20T09:53:15;97773.03;;;3.68;100.00
73085;BME280;62974;49.460;10.892;2023-12-20T09:55:42;97785.28;;;3.61;100.00
73085;BME280;62974;49.460;10.892;2023-12-20T09:58:10;97805.53;;;3.70;100.00
73085;BME280;62974;49.460;10.892;2023-12-20T10:00:38;97808.94;;;3.81;100.00
73085;BME280;62974;49.460;10.892;2023-12-20T10:03:06;97804.28;;;3.83;100.00
73085;BME280;62974;49.460;10.892;2023-12-20T10:05:36;97806.78;;;3.84;100.00
73085;BME280;62974;49.460;10.892;2023-12-20T10:08:06;97798.81;;;3.84;100.00
73085;BME280;62974;49.460;10.892;2023-12-20T10:10:34;97808.97;;;3.89;100.00
73085;BME280;62974;49.460;10.892;2023-12-20T10:13:13;97807.31;;;3.88;100.00
73085;BME280;62974;49.460;10.892;2023-12-20T10:15:41;97815.78;;;3.91;100.00
73085;BME280;62974;49.460;10.892;2023-12-20T10:18:09;97815.44;;;3.86;100.00
73085;BME280;62974;49.460;10.892;2023-12-20T10:20:40;97815.59;;;3.85;100.00
73085;BME280;62974;49.460;10.892;2023-12-20T10:23:08;97810.94;;;3.87;100.00
73085;BME280;62974;49.460;10.892;2023-12-20T10:25:36;97810.13;;;3.86;100.00
73085;BME280;62974;49.460;10.892;2023-12-20T10:28:11;97801.88;;;3.97;100.00
73085;BME280;62974;49.460;10.892;2023-12-20T10:30:40;97809.19;;;4.03;100.00
73085;BME280;62974;49.460;10.892;2023-12-20T10:33:10;97809.53;;;4.00;100.00
73085;BME280;62974;49.460;10.892;2023-12-20T10:35:40;97812.03;;;4.02;100.00
73085;BME280;62974;49.460;10.892;2023-12-20T10:38:12;97793.44;;;4.02;100.00
73085;BME280;62974;49.460;10.892;2023-12-20T10:40:42;97793.94;;;4.05;100.00
73085;BME280;62974;49.460;10.892;2023-12-20T10:43:10;97796.75;;;4.04;100.00
73085;BME280;62974;49.460;10.892;2023-12-20T10:45:38;97801.56;;;4.00;100.00
73085;BME280;62974;49.460;10.892;2023-12-20T10:48:07;97801.41;;;4.02;100.00
73085;BME280;62974;49.460;10.892;2023-12-20T10:50:36;97798.75;;;4.02;100.00
73085;BME280;62974;49.460;10.892;2023-12-20T10:53:07;97796.91;;;4.02;100.00
73085;BME280;62974;49.460;10.892;2023-12-20T10:55:35;97782.31;;;4.06;100.00
73085;BME280;62974;49.460;10.892;2023-12-20T10:58:07;97791.94;;;4.07;100.00
73085;BME280;62974;49.460;10.892;2023-12-20T11:00:39;97781.50;;;4.06;100.00
73085;BME280;62974;49.460;10.892;2023-12-20T11:03:09;97779.00;;;4.04;100.00
73085;BME280;62974;49.460;10.892;2023-12-20T11:05:41;97776.97;;;3.98;100.00
73085;BME280;62974;49.460;10.892;2023-12-20T11:08:22;97771.31;;;3.93;100.00
73085;BME280;62974;49.460;10.892;2023-12-20T11:10:58;97763.34;;;3.93;100.00
73085;BME280;62974;49.460;10.892;2023-12-20T11:13:31;97752.88;;;3.92;100.00
73085;BME280;62974;49.460;10.892;2023-12-20T11:16:00;97758.88;;;3.94;100.00
73085;BME280;62974;49.460;10.892;2023-12-20T11:18:29;97758.50;;;3.89;100.00
73085;BME280;62974;49.460;10.892;2023-12-20T11:21:01;97763.13;;;3.87;100.00
73085;BME280;62974;49.460;10.892;2023-12-20T11:23:33;97771.47;;;3.92;100.00
73085;BME280;62974;49.460;10.892;2023-12-20T11:26:02;97765.34;;;3.99;100.00
73085;BME280;62974;49.460;10.892;2023-12-20T11:28:30;97770.84;;;3.98;100.00
73085;BME280;62974;49.460;10.892;2023-12-20T11:30:58;97752.91;;;4.00;100.00
73085;BME280;62974;49.460;10.892;2023-12-20T11:33:30;97740.47;;;4.00;100.00
73085;BME280;62974;49.460;10.892;2023-12-20T11:35:59;97741.31;;;4.09;100.00
73085;BME280;62974;49.460;10.892;2023-12-20T11:38:27;97741.81;;;4.04;100.00
73085;BME280;62974;49.460;10.892;2023-12-20T11:40:56;97742.78;;;4.03;100.00
73085;BME280;62974;49.460;10.892;2023-12-20T11:43:30;97757.06;;;4.02;100.00
73085;BME280;62974;49.460;10.892;2023-12-20T11:46:03;97752.91;;;4.00;100.00
73085;BME280;62974;49.460;10.892;2023-12-20T11:48:32;97735.97;;;4.01;100.00
73085;BME280;62974;49.460;10.892;2023-12-20T11:51:00;97733.31;;;4.01;100.00
73085;BME280;62974;49.460;10.892;2023-12-20T11:53:27;97729.84;;;4.00;100.00
73085;BME280;62974;49.460;10.892;2023-12-20T11:55:57;97728.50;;;4.04;100.00
73085;BME280;62974;49.460;10.892;2023-12-20T11:58:25;97726.53;;;4.06;100.00
73085;BME280;62974;49.460;10.892;2023-12-20T12:00:53;97743.47;;;4.05;100.00
73085;BME280;62974;49.460;10.892;2023-12-20T12:03:21;97733.50;;;4.07;100.00
73085;BME280;62974;49.460;10.892;2023-12-20T12:05:50;97735.34;;;4.15;100.00
73085;BME280;62974;49.460;10.892;2023-12-20T12:08:18;97733.19;;;4.18;100.00
73085;BME280;62974;49.460;10.892;2023-12-20T12:10:45;97736.53;;;4.20;100.00
73085;BME280;62974;49.460;10.892;2023-12-20T12:13:15;97735.56;;;4.21;100.00
73085;BME280;62974;49.460;10.892;2023-12-20T12:15:42;97751.50;;;4.21;100.00
73085;BME280;62974;49.460;10.892;2023-12-20T12:18:11;97740.69;;;4.23;100.00
73085;BME280;62974;49.460;10.892;2023-12-20T12:20:39;97746.00;;;4.23;100.00
73085;BME280;62974;49.460;10.892;2023-12-20T12:23:06;97746.97;;;4.22;100.00
73085;BME280;62974;49.460;10.892;2023-12-20T12:25:35;97738.34;;;4.20;100.00
73085;BME280;62974;49.460;10.892;2023-12-20T12:28:08;97736.06;;;4.25;100.00
73085;BME280;62974;49.460;10.892;2023-12-20T12:30:38;97735.03;;;4.26;100.00
73085;BME280;62974;49.460;10.892;2023-12-20T12:33:21;97737.06;;;4.40;100.00
73085;BME280;62974;49.460;10.892;2023-12-20T12:35:48;97730.25;;;4.54;100.00
73085;BME280;62974;49.460;10.892;2023-12-20T12:38:20;97731.75;;;4.40;100.00
73085;BME280;62974;49.460;10.892;2023-12-20T12:40:47;97745.41;;;4.45;100.00
73085;BME280;62974;49.460;10.892;2023-12-20T12:43:15;97748.03;;;4.37;100.00
73085;BME280;62974;49.460;10.892;2023-12-20T12:45:46;97740.88;;;4.30;100.00
73085;BME280;62974;49.460;10.892;2023-12-20T12:48:17;97740.06;;;4.29;100.00
73085;BME280;62974;49.460;10.892;2023-12-20T12:50:45;97732.22;;;4.28;100.00
73085;BME280;62974;49.460;10.892;2023-12-20T12:53:13;97736.88;;;4.25;100.00
73085;BME280;62974;49.460;10.892;2023-12-20T12:55:41;97734.03;;;4.19;100.00
73085;BME280;62974;49.460;10.892;2023-12-20T12:58:08;97736.34;;;4.22;100.00